sensor_id;sensor_type;location;lat;lon;timestamp;P1;durP1;ratioP1;P2;durP2;ratioP2
16288;SDS011;26089;43.538;5.250;2023-04-03T00:01:44;0.93;;;0.93;;
16288;SDS011;26089;43.538;5.250;2023-04-03T00:04:11;0.90;;;0.90;;
16288;SDS011;26089;43.538;5.250;2023-04-03T00:06:38;1.00;;;1.00;;
16288;SDS011;26089;43.538;5.250;2023-04-03T00:09:06;1.17;;;1.17;;
16288;SDS011;26089;43.538;5.250;2023-04-03T00:11:33;1.03;;;1.03;;
16288;SDS011;26089;43.538;5.250;2023-04-03T00:14:00;0.93;;;0.93;;
16288;SDS011;26089;43.538;5.250;2023-04-03T00:16:27;1.10;;;1.10;;
16288;SDS011;26089;43.538;5.250;2023-04-03T00:18:54;2.70;;;2.50;;
16288;SDS011;26089;43.538;5.250;2023-04-03T00:21:21;1.80;;;1.70;;
16288;SDS011;26089;43.538;5.250;2023-04-03T00:23:48;1.40;;;1.40;;
16288;SDS011;26089;43.538;5.250;2023-04-03T00:26:17;1.10;;;1.10;;
16288;SDS011;26089;43.538;5.250;2023-04-03T00:28:44;1.10;;;1.10;;
16288;SDS011;26089;43.538;5.250;2023-04-03T00:31:13;1.10;;;1.10;;
16288;SDS011;26089;43.538;5.250;2023-04-03T00:33:41;0.93;;;0.93;;
16288;SDS011;26089;43.538;5.250;2023-04-03T00:36:08;0.90;;;0.90;;
16288;SDS011;26089;43.538;5.250;2023-04-03T00:38:36;1.13;;;1.13;;
16288;SDS011;26089;43.538;5.250;2023-04-03T00:41:03;1.13;;;0.90;;
16288;SDS011;26089;43.538;5.250;2023-04-03T00:43:32;1.07;;;1.07;;
16288;SDS011;26089;43.538;5.250;2023-04-03T00:45:59;1.07;;;1.07;;
16288;SDS011;26089;43.538;5.250;2023-04-03T00:48:28;1.13;;;1.13;;
16288;SDS011;26089;43.538;5.250;2023-04-03T00:50:57;0.87;;;0.87;;
16288;SDS011;26089;43.538;5.250;2023-04-03T00:53:26;0.80;;;0.80;;
16288;SDS011;26089;43.538;5.250;2023-04-03T00:55:56;0.83;;;0.83;;
16288;SDS011;26089;43.538;5.250;2023-04-03T00:58:26;1.10;;;1.10;;
16288;SDS011;26089;43.538;5.250;2023-04-03T01:00:59;1.10;;;1.10;;
16288;SDS011;26089;43.538;5.250;2023-04-03T01:03:32;1.17;;;1.10;;
16288;SDS011;26089;43.538;5.250;2023-04-03T01:06:00;1.50;;;0.90;;
16288;SDS011;26089;43.538;5.250;2023-04-03T01:08:27;0.97;;;0.97;;
16288;SDS011;26089;43.538;5.250;2023-04-03T01:10:54;1.00;;;1.00;;
16288;SDS011;26089;43.538;5.250;2023-04-03T01:13:23;0.90;;;0.90;;
16288;SDS011;26089;43.538;5.250;2023-04-03T01:15:52;2.57;;;1.00;;
16288;SDS011;26089;43.538;5.250;2023-04-03T01:18:20;0.90;;;0.90;;
16288;SDS011;26089;43.538;5.250;2023-04-03T01:21:06;0.83;;;0.83;;
16288;SDS011;26089;43.538;5.250;2023-04-03T01:23:55;0.90;;;0.90;;
16288;SDS011;26089;43.538;5.250;2023-04-03T01:26:28;0.90;;;0.90;;
16288;SDS011;26089;43.538;5.250;2023-04-03T01:28:55;0.93;;;0.93;;
16288;SDS011;26089;43.538;5.250;2023-04-03T01:31:25;1.10;;;1.10;;
16288;SDS011;26089;43.538;5.250;2023-04-03T01:33:55;1.00;;;1.00;;
16288;SDS011;26089;43.538;5.250;2023-04-03T01:36:23;1.10;;;1.00;;
16288;SDS011;26089;43.538;5.250;2023-04-03T01:38:51;2.43;;;1.17;;
16288;SDS011;26089;43.538;5.250;2023-04-03T01:41:19;1.03;;;1.03;;
16288;SDS011;26089;43.538;5.250;2023-04-03T01:43:46;0.90;;;0.90;;
16288;SDS011;26089;43.538;5.250;2023-04-03T01:46:14;1.00;;;1.00;;
16288;SDS011;26089;43.538;5.250;2023-04-03T01:48:41;0.97;;;0.97;;
16288;SDS011;26089;43.538;5.250;2023-04-03T01:51:10;1.10;;;1.10;;
16288;SDS011;26089;43.538;5.250;2023-04-03T01:53:37;1.07;;;1.07;;
16288;SDS011;26089;43.538;5.250;2023-04-03T01:56:04;1.20;;;1.20;;
16288;SDS011;26089;43.538;5.250;2023-04-03T01:58:31;1.23;;;1.13;;
16288;SDS011;26089;43.538;5.250;2023-04-03T02:00:58;1.10;;;1.10;;
16288;SDS011;26089;43.538;5.250;2023-04-03T02:03:26;1.00;;;1.00;;
16288;SDS011;26089;43.538;5.250;2023-04-03T02:05:53;1.87;;;1.20;;
16288;SDS011;26089;43.538;5.250;2023-04-03T02:08:22;1.00;;;1.00;;
16288;SDS011;26089;43.538;5.250;2023-04-03T02:10:49;1.07;;;1.00;;
16288;SDS011;26089;43.538;5.250;2023-04-03T02:13:16;0.80;;;0.80;;
16288;SDS011;26089;43.538;5.250;2023-04-03T02:15:44;1.33;;;1.10;;
16288;SDS011;26089;43.538;5.250;2023-04-03T02:18:12;1.10;;;1.10;;
16288;SDS011;26089;43.538;5.250;2023-04-03T02:20:39;1.20;;;1.20;;
16288;SDS011;26089;43.538;5.250;2023-04-03T02:23:06;1.40;;;1.30;;
16288;SDS011;26089;43.538;5.250;2023-04-03T02:25:34;1.07;;;1.07;;
16288;SDS011;26089;43.538;5.250;2023-04-03T02:28:01;1.70;;;1.00;;
16288;SDS011;26089;43.538;5.250;2023-04-03T02:30:28;0.97;;;0.97;;
16288;SDS011;26089;43.538;5.250;2023-04-03T02:32:55;1.10;;;1.10;;
16288;SDS011;26089;43.538;5.250;2023-04-03T02:35:22;1.00;;;1.00;;
16288;SDS011;26089;43.538;5.250;2023-04-03T02:37:49;1.40;;;1.30;;
16288;SDS011;26089;43.538;5.250;2023-04-03T02:40:17;1.13;;;1.13;;
16288;SDS011;26089;43.538;5.250;2023-04-03T02:42:45;1.13;;;1.13;;
16288;SDS011;26089;43.538;5.250;2023-04-03T02:45:12;1.10;;;1.10;;
16288;SDS011;26089;43.538;5.250;2023-04-03T02:47:39;1.10;;;1.10;;
16288;SDS011;26089;43.538;5.250;2023-04-03T02:50:06;1.00;;;1.00;;
16288;SDS011;26089;43.538;5.250;2023-04-03T02:52:34;1.20;;;1.20;;
16288;SDS011;26089;43.538;5.250;2023-04-03T02:55:01;1.13;;;1.13;;
16288;SDS011;26089;43.538;5.250;2023-04-03T02:57:28;1.50;;;1.40;;
16288;SDS011;26089;43.538;5.250;2023-04-03T02:59:56;1.57;;;1.23;;
16288;SDS011;26089;43.538;5.250;2023-04-03T03:02:23;1.40;;;1.30;;
16288;SDS011;26089;43.538;5.250;2023-04-03T03:04:50;1.60;;;1.60;;
16288;SDS011;26089;43.538;5.250;2023-04-03T03:07:17;1.80;;;1.20;;
16288;SDS011;26089;43.538;5.250;2023-04-03T03:09:44;1.10;;;1.10;;
16288;SDS011;26089;43.538;5.250;2023-04-03T03:12:11;1.43;;;1.20;;
16288;SDS011;26089;43.538;5.250;2023-04-03T03:14:38;1.70;;;1.60;;
16288;SDS011;26089;43.538;5.250;2023-04-03T03:17:07;1.10;;;1.10;;
16288;SDS011;26089;43.538;5.250;2023-04-03T03:19:34;1.50;;;1.40;;
16288;SDS011;26089;43.538;5.250;2023-04-03T03:22:00;1.40;;;1.40;;
16288;SDS011;26089;43.538;5.250;2023-04-03T03:24:27;1.50;;;1.40;;
16288;SDS011;26089;43.538;5.250;2023-04-03T03:26:54;1.53;;;1.47;;
16288;SDS011;26089;43.538;5.250;2023-04-03T03:29:21;1.70;;;1.60;;
16288;SDS011;26089;43.538;5.250;2023-04-03T03:31:49;1.13;;;1.13;;
16288;SDS011;26089;43.538;5.250;2023-04-03T03:34:17;1.10;;;1.10;;
16288;SDS011;26089;43.538;5.250;2023-04-03T03:36:44;1.70;;;1.60;;
16288;SDS011;26089;43.538;5.250;2023-04-03T03:39:11;1.43;;;1.43;;
16288;SDS011;26089;43.538;5.250;2023-04-03T03:41:38;1.23;;;1.17;;
16288;SDS011;26089;43.538;5.250;2023-04-03T03:44:05;1.47;;;1.37;;
16288;SDS011;26089;43.538;5.250;2023-04-03T03:46:32;1.20;;;1.20;;
16288;SDS011;26089;43.538;5.250;2023-04-03T03:48:59;1.30;;;1.30;;
16288;SDS011;26089;43.538;5.250;2023-04-03T03:51:27;1.47;;;1.40;;
16288;SDS011;26089;43.538;5.250;2023-04-03T03:53:54;1.30;;;1.30;;
16288;SDS011;26089;43.538;5.250;2023-04-03T03:56:21;1.23;;;1.23;;
16288;SDS011;26089;43.538;5.250;2023-04-03T03:58:48;1.67;;;1.57;;
16288;SDS011;26089;43.538;5.250;2023-04-03T04:01:15;1.37;;;1.27;;
16288;SDS011;26089;43.538;5.250;2023-04-03T04:03:43;1.30;;;1.30;;
16288;SDS011;26089;43.538;5.250;2023-04-03T04:06:10;1.20;;;1.20;;
16288;SDS011;26089;43.538;5.250;2023-04-03T04:08:38;1.60;;;1.50;;
16288;SDS011;26089;43.538;5.250;2023-04-03T04:11:05;1.47;;;1.47;;
16288;SDS011;26089;43.538;5.250;2023-04-03T04:13:33;1.40;;;1.33;;
16288;SDS011;26089;43.538;5.250;2023-04-03T04:16:00;1.27;;;1.27;;
16288;SDS011;26089;43.538;5.250;2023-04-03T04:18:27;1.37;;;1.37;;
16288;SDS011;26089;43.538;5.250;2023-04-03T04:20:54;1.53;;;1.43;;
16288;SDS011;26089;43.538;5.250;2023-04-03T04:23:21;1.20;;;1.20;;
16288;SDS011;26089;43.538;5.250;2023-04-03T04:25:50;1.23;;;1.23;;
16288;SDS011;26089;43.538;5.250;2023-04-03T04:28:17;1.27;;;1.07;;
16288;SDS011;26089;43.538;5.250;2023-04-03T04:30:44;1.40;;;1.40;;
16288;SDS011;26089;43.538;5.250;2023-04-03T04:33:11;1.30;;;1.30;;
16288;SDS011;26089;43.538;5.250;2023-04-03T04:35:39;1.30;;;1.30;;
16288;SDS011;26089;43.538;5.250;2023-04-03T04:38:08;1.30;;;1.27;;
16288;SDS011;26089;43.538;5.250;2023-04-03T04:40:35;1.00;;;1.00;;
16288;SDS011;26089;43.538;5.250;2023-04-03T04:43:04;1.50;;;1.40;;
16288;SDS011;26089;43.538;5.250;2023-04-03T04:45:31;1.43;;;1.40;;
16288;SDS011;26089;43.538;5.250;2023-04-03T04:47:58;1.10;;;1.10;;
16288;SDS011;26089;43.538;5.250;2023-04-03T04:50:25;1.27;;;1.17;;
16288;SDS011;26089;43.538;5.250;2023-04-03T04:52:52;1.20;;;1.20;;
16288;SDS011;26089;43.538;5.250;2023-04-03T04:55:19;1.20;;;1.20;;
16288;SDS011;26089;43.538;5.250;2023-04-03T04:57:46;1.57;;;1.47;;
16288;SDS011;26089;43.538;5.250;2023-04-03T05:00:14;1.20;;;1.20;;
16288;SDS011;26089;43.538;5.250;2023-04-03T05:02:42;1.23;;;1.23;;
16288;SDS011;26089;43.538;5.250;2023-04-03T05:05:09;0.90;;;0.90;;
16288;SDS011;26089;43.538;5.250;2023-04-03T05:07:36;1.00;;;1.00;;
16288;SDS011;26089;43.538;5.250;2023-04-03T05:10:03;3.73;;;3.43;;
16288;SDS011;26089;43.538;5.250;2023-04-03T05:12:31;1.10;;;1.10;;
16288;SDS011;26089;43.538;5.250;2023-04-03T05:14:58;1.37;;;1.27;;
16288;SDS011;26089;43.538;5.250;2023-04-03T05:17:27;1.13;;;1.13;;
16288;SDS011;26089;43.538;5.250;2023-04-03T05:19:54;1.07;;;1.07;;
16288;SDS011;26089;43.538;5.250;2023-04-03T05:22:20;1.10;;;1.10;;
16288;SDS011;26089;43.538;5.250;2023-04-03T05:24:47;1.67;;;1.20;;
16288;SDS011;26089;43.538;5.250;2023-04-03T05:27:14;1.10;;;1.00;;
16288;SDS011;26089;43.538;5.250;2023-04-03T05:29:42;0.80;;;0.80;;
16288;SDS011;26089;43.538;5.250;2023-04-03T05:32:09;1.30;;;1.30;;
16288;SDS011;26089;43.538;5.250;2023-04-03T05:34:37;1.10;;;1.10;;
16288;SDS011;26089;43.538;5.250;2023-04-03T05:37:04;1.30;;;1.30;;
16288;SDS011;26089;43.538;5.250;2023-04-03T05:39:31;1.20;;;1.20;;
16288;SDS011;26089;43.538;5.250;2023-04-03T05:41:58;1.30;;;1.00;;
16288;SDS011;26089;43.538;5.250;2023-04-03T05:44:25;1.23;;;1.17;;
16288;SDS011;26089;43.538;5.250;2023-04-03T05:46:52;0.97;;;0.97;;
16288;SDS011;26089;43.538;5.250;2023-04-03T05:49:19;1.13;;;1.13;;
16288;SDS011;26089;43.538;5.250;2023-04-03T05:51:48;1.10;;;1.10;;
16288;SDS011;26089;43.538;5.250;2023-04-03T05:54:16;1.07;;;0.90;;
16288;SDS011;26089;43.538;5.250;2023-04-03T05:56:45;1.13;;;1.13;;
16288;SDS011;26089;43.538;5.250;2023-04-03T05:59:12;0.93;;;0.93;;
16288;SDS011;26089;43.538;5.250;2023-04-03T06:01:39;1.50;;;1.40;;
16288;SDS011;26089;43.538;5.250;2023-04-03T06:04:06;1.07;;;1.07;;
16288;SDS011;26089;43.538;5.250;2023-04-03T06:06:44;1.13;;;1.13;;
16288;SDS011;26089;43.538;5.250;2023-04-03T06:09:13;1.20;;;1.20;;
16288;SDS011;26089;43.538;5.250;2023-04-03T06:11:41;1.17;;;1.17;;
16288;SDS011;26089;43.538;5.250;2023-04-03T06:14:08;1.00;;;1.00;;
16288;SDS011;26089;43.538;5.250;2023-04-03T06:16:36;1.10;;;1.10;;
16288;SDS011;26089;43.538;5.250;2023-04-03T06:19:03;1.10;;;1.10;;
16288;SDS011;26089;43.538;5.250;2023-04-03T06:21:30;0.90;;;0.90;;
16288;SDS011;26089;43.538;5.250;2023-04-03T06:23:57;1.20;;;1.20;;
16288;SDS011;26089;43.538;5.250;2023-04-03T06:26:26;0.90;;;0.90;;
16288;SDS011;26089;43.538;5.250;2023-04-03T06:28:53;1.33;;;1.20;;
16288;SDS011;26089;43.538;5.250;2023-04-03T06:31:21;1.17;;;1.00;;
16288;SDS011;26089;43.538;5.250;2023-04-03T06:33:48;1.30;;;1.30;;
16288;SDS011;26089;43.538;5.250;2023-04-03T06:36:15;1.20;;;1.20;;
16288;SDS011;26089;43.538;5.250;2023-04-03T06:38:45;1.60;;;1.50;;
16288;SDS011;26089;43.538;5.250;2023-04-03T06:41:12;1.47;;;1.40;;
16288;SDS011;26089;43.538;5.250;2023-04-03T06:43:40;1.20;;;1.20;;
16288;SDS011;26089;43.538;5.250;2023-04-03T06:46:09;1.10;;;1.10;;
16288;SDS011;26089;43.538;5.250;2023-04-03T06:48:40;1.67;;;1.57;;
16288;SDS011;26089;43.538;5.250;2023-04-03T06:51:10;1.20;;;1.10;;
16288;SDS011;26089;43.538;5.250;2023-04-03T06:53:43;1.03;;;1.03;;
16288;SDS011;26089;43.538;5.250;2023-04-03T06:56:10;1.67;;;1.20;;
16288;SDS011;26089;43.538;5.250;2023-04-03T06:58:37;2.33;;;1.10;;
16288;SDS011;26089;43.538;5.250;2023-04-03T07:01:06;1.70;;;1.40;;
16288;SDS011;26089;43.538;5.250;2023-04-03T07:03:34;1.10;;;1.10;;
16288;SDS011;26089;43.538;5.250;2023-04-03T07:06:02;0.93;;;0.93;;
16288;SDS011;26089;43.538;5.250;2023-04-03T07:08:29;0.90;;;0.90;;
16288;SDS011;26089;43.538;5.250;2023-04-03T07:10:56;0.93;;;0.93;;
16288;SDS011;26089;43.538;5.250;2023-04-03T07:13:23;1.10;;;1.10;;
16288;SDS011;26089;43.538;5.250;2023-04-03T07:15:50;0.87;;;0.87;;
16288;SDS011;26089;43.538;5.250;2023-04-03T07:18:19;0.90;;;0.90;;
16288;SDS011;26089;43.538;5.250;2023-04-03T07:20:46;1.23;;;1.07;;
16288;SDS011;26089;43.538;5.250;2023-04-03T07:23:13;1.13;;;1.10;;
16288;SDS011;26089;43.538;5.250;2023-04-03T07:25:42;0.80;;;0.80;;
16288;SDS011;26089;43.538;5.250;2023-04-03T07:28:10;0.70;;;0.70;;
16288;SDS011;26089;43.538;5.250;2023-04-03T07:30:41;0.90;;;0.90;;
16288;SDS011;26089;43.538;5.250;2023-04-03T07:33:10;1.17;;;0.83;;
16288;SDS011;26089;43.538;5.250;2023-04-03T07:35:39;1.00;;;1.00;;
16288;SDS011;26089;43.538;5.250;2023-04-03T07:38:07;0.60;;;0.60;;
16288;SDS011;26089;43.538;5.250;2023-04-03T07:40:34;0.80;;;0.80;;
16288;SDS011;26089;43.538;5.250;2023-04-03T07:43:01;0.67;;;0.63;;
16288;SDS011;26089;43.538;5.250;2023-04-03T07:45:29;0.50;;;0.50;;
16288;SDS011;26089;43.538;5.250;2023-04-03T07:47:56;0.70;;;0.70;;
16288;SDS011;26089;43.538;5.250;2023-04-03T07:50:23;0.60;;;0.60;;
16288;SDS011;26089;43.538;5.250;2023-04-03T07:52:53;0.60;;;0.60;;
16288;SDS011;26089;43.538;5.250;2023-04-03T07:55:22;0.50;;;0.50;;
16288;SDS011;26089;43.538;5.250;2023-04-03T07:57:49;0.70;;;0.70;;
16288;SDS011;26089;43.538;5.250;2023-04-03T08:00:17;0.70;;;0.70;;
16288;SDS011;26089;43.538;5.250;2023-04-03T08:02:44;1.80;;;0.80;;
16288;SDS011;26089;43.538;5.250;2023-04-03T08:05:15;0.70;;;0.70;;
16288;SDS011;26089;43.538;5.250;2023-04-03T08:07:42;0.80;;;0.73;;
16288;SDS011;26089;43.538;5.250;2023-04-03T08:10:11;0.70;;;0.70;;
16288;SDS011;26089;43.538;5.250;2023-04-03T08:12:38;0.80;;;0.80;;
16288;SDS011;26089;43.538;5.250;2023-04-03T08:15:05;10.10;;;1.43;;
16288;SDS011;26089;43.538;5.250;2023-04-03T08:17:33;1.37;;;0.80;;
16288;SDS011;26089;43.538;5.250;2023-04-03T08:20:00;0.70;;;0.70;;
16288;SDS011;26089;43.538;5.250;2023-04-03T08:22:28;1.13;;;0.80;;
16288;SDS011;26089;43.538;5.250;2023-04-03T08:24:56;0.93;;;0.60;;
16288;SDS011;26089;43.538;5.250;2023-04-03T08:27:24;0.80;;;0.80;;
16288;SDS011;26089;43.538;5.250;2023-04-03T08:29:52;0.67;;;0.67;;
16288;SDS011;26089;43.538;5.250;2023-04-03T08:32:19;0.60;;;0.60;;
16288;SDS011;26089;43.538;5.250;2023-04-03T08:34:46;0.70;;;0.70;;
16288;SDS011;26089;43.538;5.250;2023-04-03T08:37:13;0.60;;;0.60;;
16288;SDS011;26089;43.538;5.250;2023-04-03T08:39:41;1.03;;;0.80;;
16288;SDS011;26089;43.538;5.250;2023-04-03T08:42:12;0.60;;;0.60;;
16288;SDS011;26089;43.538;5.250;2023-04-03T08:44:47;1.23;;;0.53;;
16288;SDS011;26089;43.538;5.250;2023-04-03T08:47:22;1.37;;;0.60;;
16288;SDS011;26089;43.538;5.250;2023-04-03T08:49:53;0.70;;;0.70;;
16288;SDS011;26089;43.538;5.250;2023-04-03T08:52:25;1.40;;;0.50;;
16288;SDS011;26089;43.538;5.250;2023-04-03T08:54:58;1.07;;;0.70;;
16288;SDS011;26089;43.538;5.250;2023-04-03T08:57:28;0.50;;;0.50;;
16288;SDS011;26089;43.538;5.250;2023-04-03T08:59:59;1.80;;;0.50;;
16288;SDS011;26089;43.538;5.250;2023-04-03T09:02:30;1.10;;;0.60;;
16288;SDS011;26089;43.538;5.250;2023-04-03T09:05:01;0.80;;;0.80;;
16288;SDS011;26089;43.538;5.250;2023-04-03T09:07:31;0.97;;;0.63;;
16288;SDS011;26089;43.538;5.250;2023-04-03T09:10:02;0.60;;;0.60;;
16288;SDS011;26089;43.538;5.250;2023-04-03T09:12:32;0.50;;;0.50;;
16288;SDS011;26089;43.538;5.250;2023-04-03T09:15:08;0.50;;;0.50;;
16288;SDS011;26089;43.538;5.250;2023-04-03T09:17:41;2.57;;;0.70;;
16288;SDS011;26089;43.538;5.250;2023-04-03T09:20:20;0.60;;;0.60;;
16288;SDS011;26089;43.538;5.250;2023-04-03T09:22:52;0.47;;;0.47;;
16288;SDS011;26089;43.538;5.250;2023-04-03T09:25:20;1.07;;;0.60;;
16288;SDS011;26089;43.538;5.250;2023-04-03T09:27:49;0.70;;;0.70;;
16288;SDS011;26089;43.538;5.250;2023-04-03T09:30:18;0.60;;;0.60;;
16288;SDS011;26089;43.538;5.250;2023-04-03T09:32:48;0.70;;;0.70;;
16288;SDS011;26089;43.538;5.250;2023-04-03T09:35:19;0.50;;;0.50;;
16288;SDS011;26089;43.538;5.250;2023-04-03T09:37:48;1.40;;;0.43;;
16288;SDS011;26089;43.538;5.250;2023-04-03T09:40:31;1.17;;;0.50;;
16288;SDS011;26089;43.538;5.250;2023-04-03T09:43:01;0.53;;;0.53;;
16288;SDS011;26089;43.538;5.250;2023-04-03T09:45:46;0.60;;;0.60;;
16288;SDS011;26089;43.538;5.250;2023-04-03T09:48:15;0.60;;;0.60;;
16288;SDS011;26089;43.538;5.250;2023-04-03T09:50:54;0.70;;;0.70;;
16288;SDS011;26089;43.538;5.250;2023-04-03T09:53:26;4.20;;;1.03;;
16288;SDS011;26089;43.538;5.250;2023-04-03T09:55:55;1.23;;;0.77;;
16288;SDS011;26089;43.538;5.250;2023-04-03T09:58:24;0.67;;;0.67;;
16288;SDS011;26089;43.538;5.250;2023-04-03T10:00:55;0.60;;;0.60;;
16288;SDS011;26089;43.538;5.250;2023-04-03T10:03:24;4.43;;;0.70;;
16288;SDS011;26089;43.538;5.250;2023-04-03T10:05:54;0.73;;;0.50;;
16288;SDS011;26089;43.538;5.250;2023-04-03T10:08:24;0.40;;;0.40;;
16288;SDS011;26089;43.538;5.250;2023-04-03T10:11:05;0.50;;;0.50;;
16288;SDS011;26089;43.538;5.250;2023-04-03T10:13:51;0.80;;;0.80;;
16288;SDS011;26089;43.538;5.250;2023-04-03T10:16:22;0.40;;;0.40;;
16288;SDS011;26089;43.538;5.250;2023-04-03T10:18:56;1.40;;;0.80;;
16288;SDS011;26089;43.538;5.250;2023-04-03T10:21:34;0.50;;;0.50;;
16288;SDS011;26089;43.538;5.250;2023-04-03T10:24:09;0.80;;;0.80;;
16288;SDS011;26089;43.538;5.250;2023-04-03T10:26:42;0.90;;;0.53;;
16288;SDS011;26089;43.538;5.250;2023-04-03T10:29:21;0.70;;;0.70;;
16288;SDS011;26089;43.538;5.250;2023-04-03T10:32:01;2.00;;;0.80;;
16288;SDS011;26089;43.538;5.250;2023-04-03T10:34:35;1.53;;;0.80;;
16288;SDS011;26089;43.538;5.250;2023-04-03T10:37:06;0.50;;;0.50;;
16288;SDS011;26089;43.538;5.250;2023-04-03T10:39:43;0.70;;;0.50;;
16288;SDS011;26089;43.538;5.250;2023-04-03T10:42:18;1.60;;;0.67;;
16288;SDS011;26089;43.538;5.250;2023-04-03T10:44:53;1.03;;;0.60;;
16288;SDS011;26089;43.538;5.250;2023-04-03T10:47:46;0.60;;;0.60;;
16288;SDS011;26089;43.538;5.250;2023-04-03T10:50:26;1.67;;;0.53;;
16288;SDS011;26089;43.538;5.250;2023-04-03T10:53:03;1.17;;;0.70;;
16288;SDS011;26089;43.538;5.250;2023-04-03T10:55:35;0.50;;;0.50;;
16288;SDS011;26089;43.538;5.250;2023-04-03T10:58:16;0.60;;;0.60;;
16288;SDS011;26089;43.538;5.250;2023-04-03T11:00:47;1.03;;;0.57;;
16288;SDS011;26089;43.538;5.250;2023-04-03T11:03:22;0.90;;;0.50;;
16288;SDS011;26089;43.538;5.250;2023-04-03T11:05:56;2.13;;;0.73;;
16288;SDS011;26089;43.538;5.250;2023-04-03T11:08:28;2.63;;;0.70;;
16288;SDS011;26089;43.538;5.250;2023-04-03T11:11:00;1.43;;;0.60;;
16288;SDS011;26089;43.538;5.250;2023-04-03T11:13:32;2.23;;;0.70;;
16288;SDS011;26089;43.538;5.250;2023-04-03T11:16:01;0.70;;;0.60;;
16288;SDS011;26089;43.538;5.250;2023-04-03T11:18:32;0.50;;;0.50;;
16288;SDS011;26089;43.538;5.250;2023-04-03T11:21:04;1.23;;;0.50;;
16288;SDS011;26089;43.538;5.250;2023-04-03T11:23:35;2.00;;;0.70;;
16288;SDS011;26089;43.538;5.250;2023-04-03T11:26:09;0.60;;;0.60;;
16288;SDS011;26089;43.538;5.250;2023-04-03T11:28:38;1.00;;;0.40;;
16288;SDS011;26089;43.538;5.250;2023-04-03T11:31:09;0.40;;;0.40;;
16288;SDS011;26089;43.538;5.250;2023-04-03T11:34:00;4.03;;;0.80;;
16288;SDS011;26089;43.538;5.250;2023-04-03T11:36:42;1.40;;;0.63;;
16288;SDS011;26089;43.538;5.250;2023-04-03T11:39:16;2.77;;;0.70;;
16288;SDS011;26089;43.538;5.250;2023-04-03T11:41:49;1.23;;;0.60;;
16288;SDS011;26089;43.538;5.250;2023-04-03T11:44:28;2.17;;;0.63;;
16288;SDS011;26089;43.538;5.250;2023-04-03T11:47:01;0.80;;;0.80;;
16288;SDS011;26089;43.538;5.250;2023-04-03T11:52:54;0.60;;;0.60;;
16288;SDS011;26089;43.538;5.250;2023-04-03T11:55:41;1.57;;;0.80;;
16288;SDS011;26089;43.538;5.250;2023-04-03T11:58:19;0.80;;;0.43;;
16288;SDS011;26089;43.538;5.250;2023-04-03T12:00:51;0.52;;;0.52;;
16288;SDS011;26089;43.538;5.250;2023-04-03T12:03:31;1.47;;;0.60;;
16288;SDS011;26089;43.538;5.250;2023-04-03T12:12:32;0.70;;;0.63;;
16288;SDS011;26089;43.538;5.250;2023-04-03T12:18:37;1.00;;;0.93;;
16288;SDS011;26089;43.538;5.250;2023-04-03T12:21:08;0.80;;;0.80;;
16288;SDS011;26089;43.538;5.250;2023-04-03T12:23:54;1.40;;;0.80;;
16288;SDS011;26089;43.538;5.250;2023-04-03T12:26:25;0.87;;;0.70;;
16288;SDS011;26089;43.538;5.250;2023-04-03T12:28:56;1.20;;;0.98;;
16288;SDS011;26089;43.538;5.250;2023-04-03T12:31:25;0.82;;;0.65;;
16288;SDS011;26089;43.538;5.250;2023-04-03T12:34:10;0.65;;;0.65;;
16288;SDS011;26089;43.538;5.250;2023-04-03T12:36:52;0.90;;;0.90;;
16288;SDS011;26089;43.538;5.250;2023-04-03T12:39:35;0.52;;;0.52;;
16288;SDS011;26089;43.538;5.250;2023-04-03T12:42:23;0.90;;;0.77;;
16288;SDS011;26089;43.538;5.250;2023-04-03T12:45:07;0.70;;;0.70;;
16288;SDS011;26089;43.538;5.250;2023-04-03T12:47:43;0.65;;;0.65;;
16288;SDS011;26089;43.538;5.250;2023-04-03T12:50:16;1.70;;;0.90;;
16288;SDS011;26089;43.538;5.250;2023-04-03T12:52:49;2.67;;;1.00;;
16288;SDS011;26089;43.538;5.250;2023-04-03T12:55:22;1.35;;;0.80;;
16288;SDS011;26089;43.538;5.250;2023-04-03T12:57:49;0.93;;;0.80;;
16288;SDS011;26089;43.538;5.250;2023-04-03T13:00:21;2.20;;;0.77;;
16288;SDS011;26089;43.538;5.250;2023-04-03T13:02:53;3.20;;;1.13;;
16288;SDS011;26089;43.538;5.250;2023-04-03T13:05:21;0.65;;;0.65;;
16288;SDS011;26089;43.538;5.250;2023-04-03T13:07:49;1.92;;;0.80;;
16288;SDS011;26089;43.538;5.250;2023-04-03T13:10:19;0.95;;;0.95;;
16288;SDS011;26089;43.538;5.250;2023-04-03T13:12:49;1.38;;;0.70;;
16288;SDS011;26089;43.538;5.250;2023-04-03T13:15:17;1.57;;;1.00;;
16288;SDS011;26089;43.538;5.250;2023-04-03T13:17:46;1.17;;;1.10;;
16288;SDS011;26089;43.538;5.250;2023-04-03T13:20:17;1.27;;;0.80;;
16288;SDS011;26089;43.538;5.250;2023-04-03T13:22:48;2.20;;;1.00;;
16288;SDS011;26089;43.538;5.250;2023-04-03T13:25:23;1.23;;;0.97;;
16288;SDS011;26089;43.538;5.250;2023-04-03T13:27:53;2.43;;;0.93;;
16288;SDS011;26089;43.538;5.250;2023-04-03T13:30:23;6.80;;;1.73;;
16288;SDS011;26089;43.538;5.250;2023-04-03T13:32:54;1.90;;;0.90;;
16288;SDS011;26089;43.538;5.250;2023-04-03T13:35:31;1.33;;;1.10;;
16288;SDS011;26089;43.538;5.250;2023-04-03T13:38:02;2.03;;;1.23;;
16288;SDS011;26089;43.538;5.250;2023-04-03T13:40:32;3.00;;;1.33;;
16288;SDS011;26089;43.538;5.250;2023-04-03T13:43:01;1.70;;;1.30;;
16288;SDS011;26089;43.538;5.250;2023-04-03T13:45:32;1.13;;;1.00;;
16288;SDS011;26089;43.538;5.250;2023-04-03T13:48:08;1.03;;;1.00;;
16288;SDS011;26089;43.538;5.250;2023-04-03T13:50:51;1.10;;;1.10;;
16288;SDS011;26089;43.538;5.250;2023-04-03T13:53:24;1.30;;;1.10;;
16288;SDS011;26089;43.538;5.250;2023-04-03T13:55:54;1.20;;;1.10;;
16288;SDS011;26089;43.538;5.250;2023-04-03T13:58:32;1.20;;;1.20;;
16288;SDS011;26089;43.538;5.250;2023-04-03T14:01:01;1.40;;;1.30;;
16288;SDS011;26089;43.538;5.250;2023-04-03T14:03:40;2.40;;;1.03;;
16288;SDS011;26089;43.538;5.250;2023-04-03T14:06:10;1.40;;;1.00;;
16288;SDS011;26089;43.538;5.250;2023-04-03T14:08:38;1.07;;;1.07;;
16288;SDS011;26089;43.538;5.250;2023-04-03T14:11:08;1.97;;;1.30;;
16288;SDS011;26089;43.538;5.250;2023-04-03T14:13:40;1.07;;;1.07;;
16288;SDS011;26089;43.538;5.250;2023-04-03T14:16:07;1.00;;;0.93;;
16288;SDS011;26089;43.538;5.250;2023-04-03T14:18:38;2.93;;;0.90;;
16288;SDS011;26089;43.538;5.250;2023-04-03T14:21:05;1.97;;;1.30;;
16288;SDS011;26089;43.538;5.250;2023-04-03T14:23:32;5.03;;;1.30;;
16288;SDS011;26089;43.538;5.250;2023-04-03T14:26:00;1.83;;;1.23;;
16288;SDS011;26089;43.538;5.250;2023-04-03T14:28:27;6.80;;;1.63;;
16288;SDS011;26089;43.538;5.250;2023-04-03T14:30:55;3.00;;;1.40;;
16288;SDS011;26089;43.538;5.250;2023-04-03T14:33:22;2.07;;;1.20;;
16288;SDS011;26089;43.538;5.250;2023-04-03T14:35:51;2.83;;;1.33;;
16288;SDS011;26089;43.538;5.250;2023-04-03T14:38:21;3.90;;;1.40;;
16288;SDS011;26089;43.538;5.250;2023-04-03T14:40:50;2.13;;;1.23;;
16288;SDS011;26089;43.538;5.250;2023-04-03T14:43:18;2.53;;;1.20;;
16288;SDS011;26089;43.538;5.250;2023-04-03T14:45:46;3.00;;;1.40;;
16288;SDS011;26089;43.538;5.250;2023-04-03T14:48:16;1.23;;;1.13;;
16288;SDS011;26089;43.538;5.250;2023-04-03T14:50:45;4.07;;;1.23;;
16288;SDS011;26089;43.538;5.250;2023-04-03T14:53:13;2.20;;;1.20;;
16288;SDS011;26089;43.538;5.250;2023-04-03T14:55:41;1.50;;;1.40;;
16288;SDS011;26089;43.538;5.250;2023-04-03T14:58:12;1.20;;;1.20;;
16288;SDS011;26089;43.538;5.250;2023-04-03T15:00:40;1.50;;;1.40;;
16288;SDS011;26089;43.538;5.250;2023-04-03T15:03:09;3.77;;;1.70;;
16288;SDS011;26089;43.538;5.250;2023-04-03T15:05:42;1.30;;;1.20;;
16288;SDS011;26089;43.538;5.250;2023-04-03T15:08:18;1.93;;;1.60;;
16288;SDS011;26089;43.538;5.250;2023-04-03T15:10:47;1.60;;;1.50;;
16288;SDS011;26089;43.538;5.250;2023-04-03T15:13:14;1.93;;;1.50;;
16288;SDS011;26089;43.538;5.250;2023-04-03T15:15:41;2.20;;;1.40;;
16288;SDS011;26089;43.538;5.250;2023-04-03T15:18:10;2.20;;;1.60;;